Time;durP1;ratioP1;P1;durP2;ratioP2;P2;SDS_P1;SDS_P2;PMS_P1;PMS_P2;Temp;Humidity;BMP_temperature;BMP_pressure;BME280_temperature;BME280_humidity;BME280_pressure;Samples;Min_cycle;Max_cycle;Signal;HPM_P1;HPM_P2
2022/11/11 00:01:10;;;;;;;;;;;10.70;99.90;;;;;;8416393;28;19924;-76
2022/11/11 00:05:11;;;;;;;;;;;10.70;99.90;;;;;;8402123;28;19938;-76
2022/11/11 00:09:13;;;;;;;;;;;10.70;99.90;;;;;;8420244;28;20015;-76
2022/11/11 00:13:15;;;;;;;;;;;10.70;99.90;;;;;;8414398;28;19924;-76
2022/11/11 00:25:57;;;;;;;;;;;10.80;99.90;;;;;;8402049;28;19924;-76
2022/11/11 00:30:19;;;;;;;;;;;10.80;99.90;;;;;;8420290;28;20319;-76
2022/11/11 00:39:30;;;;;;;;;;;10.80;99.90;;;;;;8412593;28;19927;-77
2022/11/11 00:43:31;;;;;;;;;;;10.80;99.90;;;;;;8403967;28;19924;-77
2022/11/11 00:51:53;;;;;;;;;;;10.80;99.90;;;;;;8413844;28;19924;-76
2022/11/11 00:55:58;;;;;;;;;;;10.80;99.90;;;;;;8418644;28;20296;-76
2022/11/11 00:59:59;;;;;;;;;;;10.80;99.90;;;;;;8398344;28;19941;-76
2022/11/11 01:04:01;;;;;;;;;;;10.80;99.90;;;;;;8409522;28;19923;-76
2022/11/11 01:08:03;;;;;;;;;;;10.90;99.90;;;;;;8426220;28;20012;-77
2022/11/11 01:12:04;;;;;;;;;;;10.90;99.90;;;;;;8421071;28;19931;-76
2022/11/11 01:16:07;;;;;;;;;;;10.90;99.90;;;;;;8404433;28;20248;-76
2022/11/11 01:20:09;;;;;;;;;;;10.90;99.90;;;;;;8428359;28;20341;-76
2022/11/11 01:24:11;;;;;;;;;;;10.90;99.90;;;;;;8408645;28;19931;-77
2022/11/11 01:28:12;;;;;;;;;;;10.90;99.90;;;;;;8417084;28;19929;-76
2022/11/11 01:32:14;;;;;;;;;;;10.90;99.90;;;;;;8412335;28;19924;-75
2022/11/11 01:36:17;;;;;;;;;;;10.80;99.90;;;;;;8417653;28;19932;-76
2022/11/11 01:40:19;;;;;;;;;;;10.80;99.90;;;;;;8414427;28;19928;-76
2022/11/11 01:44:39;;;;;;;;;;;10.80;99.90;;;;;;8421763;28;19988;-76
2022/11/11 01:53:05;;;;;;;;;;;10.80;99.90;;;;;;8425540;28;19962;-76
2022/11/11 01:57:07;;;;;;;;;;;10.80;99.90;;;;;;8417426;28;20286;-76
2022/11/11 02:01:09;;;;;;;;;;;10.70;99.90;;;;;;8390137;28;19928;-77
2022/11/11 02:09:33;;;;;;;;;;;10.70;99.90;;;;;;8408225;28;19965;-76
2022/11/11 02:17:59;;;;;;;;;;;10.70;99.90;;;;;;8420935;28;19932;-77
2022/11/11 02:22:01;;;;;;;;;;;10.70;99.90;;;;;;8423085;28;19924;-77
2022/11/11 02:26:04;;;;;;;;;;;10.70;99.90;;;;;;8408174;28;20330;-77
2022/11/11 02:30:06;;;;;;;;;;;10.70;99.90;;;;;;8422149;28;19924;-76
2022/11/11 02:34:08;;;;;;;;;;;10.70;99.90;;;;;;8413624;28;20362;-77
2022/11/11 02:38:12;;;;;;;;;;;10.70;99.90;;;;;;8402813;28;19924;-76
2022/11/11 02:42:15;;;;;;;;;;;10.70;99.90;;;;;;8423154;28;19929;-77
2022/11/11 02:46:17;;;;;;;;;;;10.60;99.90;;;;;;8420626;28;19925;-76
2022/11/11 02:50:19;;;;;;;;;;;10.60;99.90;;;;;;8417209;28;20263;-77
2022/11/11 02:54:20;;;;;;;;;;;10.60;99.90;;;;;;8388012;28;19942;-77
2022/11/11 02:58:22;;;;;;;;;;;10.50;99.90;;;;;;8410379;28;19932;-76
2022/11/11 03:02:27;;;;;;;;;;;10.50;99.90;;;;;;8412237;28;19924;-76
2022/11/11 03:06:29;;;;;;;;;;;10.50;99.90;;;;;;8386277;28;19928;-76
2022/11/11 03:10:31;;;;;;;;;;;10.50;99.90;;;;;;8391946;28;19928;-76
2022/11/11 03:14:32;;;;;;;;;;;10.50;99.90;;;;;;8417067;28;19951;-76
2022/11/11 03:18:34;;;;;;;;;;;10.40;99.90;;;;;;8416827;28;19985;-77
2022/11/11 03:22:36;;;;;;;;;;;10.40;99.90;;;;;;8417376;28;20415;-76
2022/11/11 03:26:55;;;;;;;;;;;10.40;99.90;;;;;;8413927;28;19924;-76
2022/11/11 03:30:58;;;;;;;;;;;10.40;99.90;;;;;;8408448;28;20011;-77
2022/11/11 03:35:04;;;;;;;;;;;10.40;99.90;;;;;;8398817;28;19924;-77
2022/11/11 03:39:06;;;;;;;;;;;10.40;99.90;;;;;;8411900;28;20007;-76
2022/11/11 03:48:38;;;;;;;;;;;10.40;99.90;;;;;;8406501;28;20414;-76
2022/11/11 03:52:40;;;;;;;;;;;10.50;99.90;;;;;;8419212;28;19927;-77
2022/11/11 03:56:42;;;;;;;;;;;10.50;99.90;;;;;;8408810;28;19933;-76
2022/11/11 04:00:44;;;;;;;;;;;10.50;99.90;;;;;;8401963;28;20431;-76
2022/11/11 04:17:47;;;;;;;;;;;10.50;99.90;;;;;;8419767;28;20418;-76
2022/11/11 04:21:49;;;;;;;;;;;10.50;99.90;;;;;;8406056;28;20368;-76
2022/11/11 04:25:52;;;;;;;;;;;10.60;99.90;;;;;;8415643;28;20319;-76
2022/11/11 04:29:54;;;;;;;;;;;10.60;99.90;;;;;;8419577;28;20270;-77
2022/11/11 04:33:55;;;;;;;;;;;10.50;99.90;;;;;;8407812;28;19938;-76
2022/11/11 04:41:02;;;;;;;;;;;10.50;99.90;;;;;;8410288;28;19924;-76
2022/11/11 04:42:18;;;;;;;;;;;10.50;99.90;;;;;;8406700;28;19931;-76
2022/11/11 04:46:20;;;;;;;;;;;10.50;99.90;;;;;;8394937;28;19946;-77
2022/11/11 04:50:23;;;;;;;;;;;10.50;99.90;;;;;;8403323;28;19924;-76
2022/11/11 04:54:25;;;;;;;;;;;10.50;99.90;;;;;;8408064;28;19924;-76
2022/11/11 04:58:29;;;;;;;;;;;10.40;99.90;;;;;;8399471;28;20370;-76
2022/11/11 05:11:11;;;;;;;;;;;10.30;99.90;;;;;;8407026;28;19928;-76
2022/11/11 05:28:13;;;;;;;;;;;10.20;99.90;;;;;;8419332;28;20024;-76
2022/11/11 05:32:15;;;;;;;;;;;10.10;99.90;;;;;;8423481;28;19924;-75
2022/11/11 05:36:17;;;;;;;;;;;10.10;99.90;;;;;;8420314;28;19935;-76
2022/11/11 05:40:19;;;;;;;;;;;10.10;99.90;;;;;;8417819;28;20504;-75
2022/11/11 05:44:20;;;;;;;;;;;10.00;99.90;;;;;;8427929;28;19975;-76
2022/11/11 05:48:22;;;;;;;;;;;10.00;99.90;;;;;;8423945;28;20006;-76
2022/11/11 05:52:24;;;;;;;;;;;10.00;99.90;;;;;;8416553;28;19975;-76
2022/11/11 05:56:25;;;;;;;;;;;9.90;99.90;;;;;;8413375;28;19924;-76
2022/11/11 06:00:27;;;;;;;;;;;9.90;99.90;;;;;;8424380;28;20360;-76
2022/11/11 06:04:29;;;;;;;;;;;9.90;99.90;;;;;;8428627;28;19924;-76
2022/11/11 06:08:30;;;;;;;;;;;9.80;99.90;;;;;;8412955;28;20138;-76
2022/11/11 06:13:00;;;;;;;;;;;9.80;99.90;;;;;;8420921;28;20280;-76
2022/11/11 06:16:53;;;;;;;;;;;9.70;99.90;;;;;;8414323;28;19934;-75
2022/11/11 06:20:55;;;;;;;;;;;9.70;99.90;;;;;;8434963;28;20268;-76
2022/11/11 06:26:11;;;;;;;;;;;9.70;99.90;;;;;;8425167;28;19940;-76
2022/11/11 06:29:18;;;;;;;;;;;9.60;99.90;;;;;;8424501;28;20010;-77
2022/11/11 06:33:20;;;;;;;;;;;9.70;99.90;;;;;;8424346;28;20122;-76
2022/11/11 06:37:22;;;;;;;;;;;9.70;99.90;;;;;;8422087;28;19924;-76
2022/11/11 06:41:24;;;;;;;;;;;9.70;99.90;;;;;;8407367;28;19936;-76
2022/11/11 06:45:27;;;;;;;;;;;9.80;99.90;;;;;;8421044;28;19924;-76
2022/11/11 06:49:29;;;;;;;;;;;9.70;99.90;;;;;;8407232;28;19974;-76
2022/11/11 06:53:30;;;;;;;;;;;9.80;99.90;;;;;;8409075;28;20007;-76
2022/11/11 06:57:32;;;;;;;;;;;9.80;99.90;;;;;;8409878;28;19978;-76
2022/11/11 07:01:33;;;;;;;;;;;9.80;99.90;;;;;;8420947;28;19924;-76
2022/11/11 07:05:35;;;;;;;;;;;9.80;99.90;;;;;;8427706;28;20288;-76
2022/11/11 07:09:37;;;;;;;;;;;9.80;99.90;;;;;;8407502;28;19935;-77
2022/11/11 07:13:38;;;;;;;;;;;9.90;99.90;;;;;;8428669;28;19924;-77
2022/11/11 07:17:40;;;;;;;;;;;9.80;99.90;;;;;;8423386;28;20368;-77
2022/11/11 07:21:41;;;;;;;;;;;9.80;99.90;;;;;;8406106;28;19931;-76
2022/11/11 07:25:44;;;;;;;;;;;9.80;99.90;;;;;;8381852;28;19934;-77
2022/11/11 07:29:47;;;;;;;;;;;9.80;99.90;;;;;;8412761;28;19991;-76
2022/11/11 07:33:48;;;;;;;;;;;9.80;99.90;;;;;;8420669;28;20046;-75
2022/11/11 07:37:50;;;;;;;;;;;9.80;99.90;;;;;;8438431;28;20368;-76
2022/11/11 07:41:52;;;;;;;;;;;9.80;99.90;;;;;;8404366;28;19928;-76
2022/11/11 07:45:54;;;;;;;;;;;9.90;99.90;;;;;;8418768;28;20015;-76
2022/11/11 07:49:55;;;;;;;;;;;9.90;99.90;;;;;;8402184;28;19924;-76
2022/11/11 07:53:57;;;;;;;;;;;9.90;99.90;;;;;;8410472;28;19928;-76
2022/11/11 07:57:59;;;;;;;;;;;9.90;99.90;;;;;;8414560;28;20022;-75
2022/11/11 08:02:00;;;;;;;;;;;9.90;99.90;;;;;;8419220;28;20237;-75
2022/11/11 08:06:02;;;;;;;;;;;9.90;99.90;;;;;;8398815;28;19925;-76
2022/11/11 08:10:03;;;;;;;;;;;9.90;99.90;;;;;;8411711;28;19927;-76
2022/11/11 08:14:05;;;;;;;;;;;9.90;99.90;;;;;;8424536;28;19927;-75
2022/11/11 08:18:07;;;;;;;;;;;9.90;99.90;;;;;;8403351;28;20023;-76
2022/11/11 08:22:08;;;;;;;;;;;10.00;99.90;;;;;;8432124;28;19925;-75
2022/11/11 08:26:10;;;;;;;;;;;9.90;99.90;;;;;;8425292;28;19940;-76
2022/11/11 08:30:12;;;;;;;;;;;9.90;99.90;;;;;;8420624;28;19967;-76
2022/11/11 08:34:14;;;;;;;;;;;10.00;99.90;;;;;;8426393;28;19928;-75
2022/11/11 08:38:15;;;;;;;;;;;10.00;99.90;;;;;;8427758;28;19923;-75
2022/11/11 08:42:17;;;;;;;;;;;10.00;99.90;;;;;;8412733;28;19947;-76
2022/11/11 08:46:19;;;;;;;;;;;10.00;99.90;;;;;;8391454;28;20359;-76
2022/11/11 08:50:20;;;;;;;;;;;10.00;99.90;;;;;;8411288;28;20341;-75
2022/11/11 08:54:22;;;;;;;;;;;10.00;99.90;;;;;;8392954;28;19924;-76
2022/11/11 08:58:23;;;;;;;;;;;10.10;99.90;;;;;;8390082;28;20291;-76
2022/11/11 09:02:25;;;;;;;;;;;10.10;99.90;;;;;;8406670;28;20034;-75
2022/11/11 09:06:27;;;;;;;;;;;10.20;99.90;;;;;;8415900;28;19947;-76
2022/11/11 09:10:28;;;;;;;;;;;10.20;99.90;;;;;;8420562;28;19924;-76
2022/11/11 09:14:30;;;;;;;;;;;10.20;99.90;;;;;;8404146;28;19928;-76
2022/11/11 09:18:32;;;;;;;;;;;10.20;99.90;;;;;;8405348;28;21009;-76
2022/11/11 09:22:40;;;;;;;;;;;10.30;99.90;;;;;;8425053;28;20756;-75
2022/11/11 09:26:41;;;;;;;;;;;10.30;99.90;;;;;;8417397;28;19925;-76
2022/11/11 09:30:43;;;;;;;;;;;10.30;99.90;;;;;;8431529;28;21891;-76
2022/11/11 09:34:45;;;;;;;;;;;10.30;99.90;;;;;;8422390;28;19942;-76
2022/11/11 09:38:46;;;;;;;;;;;10.30;99.90;;;;;;8404788;28;20356;-76
2022/11/11 09:42:55;;;;;;;;;;;10.40;99.90;;;;;;8412410;28;20424;-75
2022/11/11 09:47:03;;;;;;;;;;;10.50;99.90;;;;;;8425871;28;19971;-76
2022/11/11 09:51:08;;;;;;;;;;;10.60;99.90;;;;;;8420704;28;20366;-75
2022/11/11 09:55:15;;;;;;;;;;;10.60;99.90;;;;;;8416134;28;19930;-75
2022/11/11 09:59:20;;;;;;;;;;;10.70;99.90;;;;;;8424858;28;19924;-75
2022/11/11 10:03:22;;;;;;;;;;;10.70;99.90;;;;;;8419633;28;19935;-75
2022/11/11 10:07:32;;;;;;;;;;;10.80;99.90;;;;;;8425767;28;19954;-76
2022/11/11 10:11:34;;;;;;;;;;;10.90;99.90;;;;;;8424919;28;20026;-75
2022/11/11 10:15:40;;;;;;;;;;;10.90;99.90;;;;;;8419848;28;19934;-75
2022/11/11 10:19:44;;;;;;;;;;;11.00;99.90;;;;;;8404277;28;20425;-76
2022/11/11 10:23:47;;;;;;;;;;;11.10;99.90;;;;;;8420257;28;19925;-76
2022/11/11 10:27:51;;;;;;;;;;;11.20;99.90;;;;;;8419734;28;19933;-76
2022/11/11 10:32:02;;;;;;;;;;;11.30;99.90;;;;;;8418556;28;19927;-76
2022/11/11 10:36:04;;;;;;;;;;;11.40;99.90;;;;;;8408396;28;19924;-75
2022/11/11 10:40:21;;;;;;;;;;;11.50;99.90;;;;;;8420594;28;19928;-76
2022/11/11 10:44:31;;;;;;;;;;;11.80;99.90;;;;;;8420839;28;20370;-76
2022/11/11 10:48:51;;;;;;;;;;;11.90;99.90;;;;;;8423052;28;20288;-76
2022/11/11 10:52:59;;;;;;;;;;;12.00;99.90;;;;;;8412954;28;19928;-75
2022/11/11 10:57:04;;;;;;;;;;;12.40;99.90;;;;;;8401143;28;19938;-75
2022/11/11 11:01:06;;;;;;;;;;;12.80;99.90;;;;;;8399194;28;19928;-75
2022/11/11 11:05:12;;;;;;;;;;;13.10;99.90;;;;;;8401059;28;20380;-76
2022/11/11 11:09:23;;;;;;;;;;;13.30;99.90;;;;;;8405430;28;19924;-76
2022/11/11 11:13:36;;;;;;;;;;;13.50;99.90;;;;;;8401839;28;19925;-76
2022/11/11 11:17:53;;;;;;;;;;;13.70;99.90;;;;;;8396321;28;19943;-76
2022/11/11 11:21:56;;;;;;;;;;;13.70;99.90;;;;;;8394469;28;19938;-76
2022/11/11 11:25:58;;;;;;;;;;;13.80;99.90;;;;;;8396292;28;19928;-75
2022/11/11 11:30:08;;;;;;;;;;;13.90;99.90;;;;;;8390870;28;19927;-75
2022/11/11 11:34:15;;;;;;;;;;;13.90;99.90;;;;;;8399064;28;20282;-76
2022/11/11 11:38:17;;;;;;;;;;;13.80;99.90;;;;;;8397024;28;20027;-76
2022/11/11 11:42:35;;;;;;;;;;;13.70;99.90;;;;;;8389464;28;19924;-76
2022/11/11 11:46:38;;;;;;;;;;;13.70;99.90;;;;;;8392959;28;19938;-76
2022/11/11 11:50:41;;;;;;;;;;;13.50;99.90;;;;;;8389425;28;20413;-76
2022/11/11 11:55:00;;;;;;;;;;;13.40;99.90;;;;;;8388735;28;20375;-76
2022/11/11 11:59:10;;;;;;;;;;;13.30;99.90;;;;;;8388959;28;20016;-76
2022/11/11 12:03:24;;;;;;;;;;;13.30;99.90;;;;;;8388618;28;19955;-76
2022/11/11 12:07:25;;;;;;;;;;;13.30;99.90;;;;;;8388731;28;19932;-76
2022/11/11 12:11:32;;;;;;;;;;;13.30;99.90;;;;;;8391212;28;20015;-76
2022/11/11 12:15:57;;;;;;;;;;;13.30;99.90;;;;;;8393847;28;19951;-76
2022/11/11 12:20:22;;;;;;;;;;;13.40;99.90;;;;;;8390373;28;20004;-75
2022/11/11 12:24:36;;;;;;;;;;;13.30;99.90;;;;;;8380739;28;19931;-76
2022/11/11 12:28:46;;;;;;;;;;;13.30;99.90;;;;;;8394022;28;20286;-76
2022/11/11 12:32:57;;;;;;;;;;;13.30;99.90;;;;;;8393368;28;19924;-76
2022/11/11 12:37:05;;;;;;;;;;;13.50;99.90;;;;;;8395764;28;20019;-76
2022/11/11 12:41:09;;;;;;;;;;;13.70;99.90;;;;;;8398374;28;19969;-76
2022/11/11 12:45:18;;;;;;;;;;;13.80;99.90;;;;;;8379095;28;19935;-76
2022/11/11 12:49:38;;;;;;;;;;;13.80;99.90;;;;;;8397915;28;19924;-75
2022/11/11 12:53:46;;;;;;;;;;;14.00;99.90;;;;;;8385863;28;19935;-75
2022/11/11 12:57:57;;;;;;;;;;;14.20;99.90;;;;;;8403033;28;20157;-75
2022/11/11 13:01:58;;;;;;;;;;;14.50;99.90;;;;;;8402355;28;19929;-75
2022/11/11 13:06:19;;;;;;;;;;;14.60;99.90;;;;;;8396606;28;20225;-76
2022/11/11 13:10:29;;;;;;;;;;;14.50;99.90;;;;;;8398676;28;19924;-75
2022/11/11 13:14:38;;;;;;;;;;;14.40;99.90;;;;;;8395522;28;19924;-75
2022/11/11 13:18:55;;;;;;;;;;;14.30;99.90;;;;;;8382481;28;19932;-75
2022/11/11 13:22:57;;;;;;;;;;;14.20;99.90;;;;;;8402359;28;19971;-75
2022/11/11 13:27:19;;;;;;;;;;;14.20;99.90;;;;;;8398606;28;19925;-76
2022/11/11 13:31:35;;;;;;;;;;;14.20;99.90;;;;;;8398111;28;19978;-76
2022/11/11 13:35:48;;;;;;;;;;;14.20;99.90;;;;;;8404271;28;19924;-75
2022/11/11 13:39:51;;;;;;;;;;;14.20;99.90;;;;;;8409760;28;19928;-75
2022/11/11 13:44:01;;;;;;;;;;;14.20;99.90;;;;;;8397255;28;20370;-75
2022/11/11 13:48:04;;;;;;;;;;;14.30;99.90;;;;;;8401801;28;20372;-75
2022/11/11 13:52:26;;;;;;;;;;;14.40;99.90;;;;;;8397029;28;19932;-76
2022/11/11 13:56:58;;;;;;;;;;;14.40;99.90;;;;;;8403814;28;19924;-76
2022/11/11 14:01:01;;;;;;;;;;;14.50;99.90;;;;;;8380986;28;19936;-76
2022/11/11 14:05:04;;;;;;;;;;;14.50;99.90;;;;;;8398452;28;19932;-75
2022/11/11 14:09:06;;;;;;;;;;;14.50;99.90;;;;;;8387689;28;19974;-76
2022/11/11 14:13:20;;;;;;;;;;;14.50;99.90;;;;;;8403737;28;19928;-77
2022/11/11 14:17:22;;;;;;;;;;;14.50;99.90;;;;;;8394557;28;19932;-76
2022/11/11 14:21:41;;;;;;;;;;;14.50;99.90;;;;;;8398215;28;20326;-75
2022/11/11 14:25:49;;;;;;;;;;;14.60;99.90;;;;;;8398136;28;20027;-76
2022/11/11 14:29:52;;;;;;;;;;;14.70;99.90;;;;;;8383613;28;19938;-76
2022/11/11 14:34:12;;;;;;;;;;;14.90;99.90;;;;;;8394972;28;19931;-75
2022/11/11 14:38:21;;;;;;;;;;;14.90;99.90;;;;;;8373558;28;19950;-76
2022/11/11 14:42:34;;;;;;;;;;;14.80;99.90;;;;;;8397606;28;20431;-76
2022/11/11 14:46:56;;;;;;;;;;;14.70;99.90;;;;;;8393633;28;19932;-76
2022/11/11 14:50:58;;;;;;;;;;;14.60;99.90;;;;;;8411522;28;19932;-76
2022/11/11 14:55:11;;;;;;;;;;;14.50;99.90;;;;;;8395114;28;20391;-76
2022/11/11 14:59:17;;;;;;;;;;;14.50;99.90;;;;;;8393502;28;19932;-76
2022/11/11 15:03:34;;;;;;;;;;;14.40;99.90;;;;;;8396288;28;20290;-76
2022/11/11 15:07:55;;;;;;;;;;;14.20;99.90;;;;;;8394187;28;19932;-76
2022/11/11 15:12:01;;;;;;;;;;;14.10;99.90;;;;;;8397032;28;19975;-76
2022/11/11 15:16:07;;;;;;;;;;;13.90;99.90;;;;;;8398527;28;19924;-76
2022/11/11 15:20:32;;;;;;;;;;;13.80;99.90;;;;;;8395321;28;19925;-76
2022/11/11 15:24:37;;;;;;;;;;;13.70;99.90;;;;;;8388504;28;20283;-76
2022/11/11 15:28:54;;;;;;;;;;;13.60;99.90;;;;;;8395951;28;19925;-75
2022/11/11 15:32:59;;;;;;;;;;;13.50;99.90;;;;;;8397665;28;19928;-76
2022/11/11 15:37:02;;;;;;;;;;;13.50;99.90;;;;;;8400263;28;19982;-76
2022/11/11 15:41:04;;;;;;;;;;;13.40;99.90;;;;;;8385545;28;19930;-76
2022/11/11 15:45:17;;;;;;;;;;;13.30;99.90;;;;;;8400795;28;20282;-76
2022/11/11 15:49:38;;;;;;;;;;;13.10;99.90;;;;;;8395527;28;19928;-76
2022/11/11 15:53:40;;;;;;;;;;;13.00;99.90;;;;;;8395540;28;19930;-76
2022/11/11 15:57:41;;;;;;;;;;;12.90;99.90;;;;;;8395798;28;20300;-76
2022/11/11 16:01:43;;;;;;;;;;;12.70;99.90;;;;;;8400084;28;19981;-76
2022/11/11 16:05:45;;;;;;;;;;;12.60;99.90;;;;;;8394944;28;19924;-76
2022/11/11 16:09:46;;;;;;;;;;;12.50;99.90;;;;;;8394364;28;20333;-76
2022/11/11 16:13:51;;;;;;;;;;;12.40;99.90;;;;;;8379557;28;19935;-76
2022/11/11 16:18:00;;;;;;;;;;;12.30;99.90;;;;;;8400813;28;19924;-76
2022/11/11 16:22:10;;;;;;;;;;;12.10;99.90;;;;;;8389939;28;19924;-76
2022/11/11 16:26:12;;;;;;;;;;;12.00;99.90;;;;;;8373629;28;19932;-76
2022/11/11 16:30:31;;;;;;;;;;;11.90;99.90;;;;;;8383208;28;19935;-76
2022/11/11 16:34:34;;;;;;;;;;;11.80;99.90;;;;;;8377811;28;20597;-76
2022/11/11 16:38:39;;;;;;;;;;;11.70;99.90;;;;;;8373881;28;19932;-76
2022/11/11 16:42:41;;;;;;;;;;;11.50;99.90;;;;;;8384631;28;19975;-76
2022/11/11 16:46:43;;;;;;;;;;;11.50;99.90;;;;;;8372463;28;19978;-76
2022/11/11 16:50:52;;;;;;;;;;;11.40;99.90;;;;;;8390862;28;19931;-76
2022/11/11 16:54:55;;;;;;;;;;;11.30;99.90;;;;;;8393425;28;19936;-76
2022/11/11 16:58:59;;;;;;;;;;;11.20;99.90;;;;;;8392924;28;19938;-76
2022/11/11 17:03:08;;;;;;;;;;;11.10;99.90;;;;;;8387410;28;20462;-76
2022/11/11 17:07:25;;;;;;;;;;;11.00;99.90;;;;;;8371777;28;19978;-76
2022/11/11 17:11:39;;;;;;;;;;;11.00;99.90;;;;;;8387486;28;20023;-75
2022/11/11 17:15:41;;;;;;;;;;;10.90;99.90;;;;;;8367032;28;19948;-76
2022/11/11 17:19:42;;;;;;;;;;;10.80;99.90;;;;;;8371973;28;19931;-76
2022/11/11 17:23:44;;;;;;;;;;;10.70;99.90;;;;;;8391000;28;19947;-76
2022/11/11 17:27:46;;;;;;;;;;;10.60;99.90;;;;;;8381041;28;19932;-77
2022/11/11 17:31:47;;;;;;;;;;;10.60;99.90;;;;;;8385048;28;20446;-76
2022/11/11 17:35:50;;;;;;;;;;;10.50;99.90;;;;;;8391526;28;19935;-76
2022/11/11 17:39:51;;;;;;;;;;;10.40;99.90;;;;;;8404502;28;20027;-75
2022/11/11 17:43:53;;;;;;;;;;;10.40;99.90;;;;;;8394482;28;19924;-76
2022/11/11 17:47:55;;;;;;;;;;;10.30;99.90;;;;;;8393064;28;19932;-76
2022/11/11 17:51:56;;;;;;;;;;;10.30;99.90;;;;;;8401532;28;20348;-76
2022/11/11 17:56:02;;;;;;;;;;;10.20;99.90;;;;;;8399013;28;19951;-76
2022/11/11 18:00:04;;;;;;;;;;;10.20;99.90;;;;;;8399614;28;19946;-76
2022/11/11 18:04:05;;;;;;;;;;;10.10;99.90;;;;;;8395734;28;19947;-75
2022/11/11 18:08:07;;;;;;;;;;;10.00;99.90;;;;;;8396570;28;19931;-76
2022/11/11 18:12:09;;;;;;;;;;;9.90;99.90;;;;;;8382017;28;20292;-76
2022/11/11 18:16:15;;;;;;;;;;;9.80;99.90;;;;;;8392064;28;19932;-76
2022/11/11 18:20:17;;;;;;;;;;;9.80;99.90;;;;;;8400583;28;19954;-75
2022/11/11 18:24:18;;;;;;;;;;;9.80;99.90;;;;;;8385849;28;20023;-76
2022/11/11 18:28:20;;;;;;;;;;;9.70;99.90;;;;;;8390905;28;19935;-76
2022/11/11 18:32:21;;;;;;;;;;;9.70;99.90;;;;;;8396096;28;19932;-76
2022/11/11 18:36:23;;;;;;;;;;;9.60;99.90;;;;;;8376679;28;19935;-76
2022/11/11 18:40:26;;;;;;;;;;;9.50;99.90;;;;;;8391643;28;19928;-76
2022/11/11 18:44:28;;;;;;;;;;;9.50;99.90;;;;;;8375398;28;20026;-76
2022/11/11 18:53:42;;;;;;;;;;;9.40;99.90;;;;;;8388257;28;20377;-76
2022/11/11 18:57:44;;;;;;;;;;;9.30;99.90;;;;;;8390524;28;19924;-76
2022/11/11 19:01:45;;;;;;;;;;;9.20;99.90;;;;;;8391070;28;20000;-76
2022/11/11 19:05:52;;;;;;;;;;;9.20;99.90;;;;;;8393884;28;20002;-76
2022/11/11 19:09:53;;;;;;;;;;;9.20;99.90;;;;;;8394185;28;19924;-76
2022/11/11 19:24:08;;;;;;;;;;;9.10;99.90;;;;;;8372901;28;20394;-76
2022/11/11 19:28:10;;;;;;;;;;;9.00;99.90;;;;;;8384045;28;19928;-76
2022/11/11 19:32:12;;;;;;;;;;;9.00;99.90;;;;;;8394882;28;20031;-75
2022/11/11 19:36:14;;;;;;;;;;;9.00;99.90;;;;;;8371690;28;19925;-76
2022/11/11 19:40:16;;;;;;;;;;;9.00;99.90;;;;;;8381806;28;19968;-76
2022/11/11 19:44:18;;;;;;;;;;;8.90;99.90;;;;;;8389594;28;20418;-76
2022/11/11 19:48:19;;;;;;;;;;;8.90;99.90;;;;;;8378134;28;20067;-76
2022/11/11 19:52:21;;;;;;;;;;;8.90;99.90;;;;;;8390965;28;19928;-76
2022/11/11 19:56:23;;;;;;;;;;;8.80;99.90;;;;;;8389885;28;19947;-76
2022/11/11 20:00:25;;;;;;;;;;;8.80;99.90;;;;;;8380530;28;19944;-76
2022/11/11 20:04:27;;;;;;;;;;;8.70;99.90;;;;;;8387898;28;19963;-76
2022/11/11 20:08:29;;;;;;;;;;;8.70;99.90;;;;;;8395493;28;19924;-75
2022/11/11 20:12:31;;;;;;;;;;;8.60;99.90;;;;;;8390992;28;20047;-76
2022/11/11 20:16:32;;;;;;;;;;;8.50;99.90;;;;;;8388898;28;19935;-75
2022/11/11 20:31:12;;;;;;;;;;;8.40;99.90;;;;;;8392546;28;19959;-76
2022/11/11 20:35:14;;;;;;;;;;;8.40;99.90;;;;;;8401760;28;19924;-76
2022/11/11 20:39:16;;;;;;;;;;;8.30;99.90;;;;;;8390272;28;20501;-76
2022/11/11 20:43:17;;;;;;;;;;;8.20;99.90;;;;;;8393869;28;20110;-75
2022/11/11 20:47:19;;;;;;;;;;;8.10;99.90;;;;;;8388156;28;19928;-76
2022/11/11 20:51:22;;;;;;;;;;;8.10;99.90;;;;;;8397145;28;19976;-76
2022/11/11 20:55:23;;;;;;;;;;;8.00;99.90;;;;;;8400505;28;19925;-75
2022/11/11 20:59:25;;;;;;;;;;;8.00;99.90;;;;;;8375845;28;19935;-76
2022/11/11 21:03:30;;;;;;;;;;;7.90;99.90;;;;;;8398298;28;19950;-75
2022/11/11 21:07:32;;;;;;;;;;;7.90;99.90;;;;;;8392638;28;19925;-75
2022/11/11 21:11:33;;;;;;;;;;;7.90;99.90;;;;;;8385839;28;19932;-76
2022/11/11 21:15:35;;;;;;;;;;;7.80;99.90;;;;;;8400782;28;20322;-75
2022/11/11 21:19:36;;;;;;;;;;;7.80;99.90;;;;;;8393002;28;20393;-76
2022/11/11 21:23:38;;;;;;;;;;;7.80;99.90;;;;;;8402241;28;19932;-75
2022/11/11 21:27:40;;;;;;;;;;;7.70;99.90;;;;;;8383483;28;19963;-75
2022/11/11 21:31:43;;;;;;;;;;;7.70;99.90;;;;;;8392075;28;20338;-75
2022/11/11 21:35:44;;;;;;;;;;;7.60;99.90;;;;;;8391078;28;19928;-75
2022/11/11 21:39:46;;;;;;;;;;;7.60;99.90;;;;;;8400997;28;20020;-76
2022/11/11 21:43:48;;;;;;;;;;;7.60;99.90;;;;;;8396561;28;20589;-76
2022/11/11 21:47:50;;;;;;;;;;;7.50;99.90;;;;;;8395213;28;20398;-75
2022/11/11 21:51:51;;;;;;;;;;;7.40;99.90;;;;;;8396475;28;20405;-76
2022/11/11 21:55:57;;;;;;;;;;;7.40;99.90;;;;;;8399130;28;19924;-75
2022/11/11 21:59:59;;;;;;;;;;;7.30;99.90;;;;;;8399924;28;19928;-76
2022/11/11 22:04:02;;;;;;;;;;;7.30;99.90;;;;;;8419325;28;19928;-76
2022/11/11 22:08:04;;;;;;;;;;;7.30;99.90;;;;;;8423586;28;19924;-75
2022/11/11 22:12:05;;;;;;;;;;;7.30;99.90;;;;;;8418751;28;19924;-76
2022/11/11 22:16:08;;;;;;;;;;;7.30;99.90;;;;;;8422280;28;20578;-75
2022/11/11 22:20:10;;;;;;;;;;;7.30;99.90;;;;;;8416676;28;19932;-75
2022/11/11 22:24:11;;;;;;;;;;;7.20;99.90;;;;;;8420162;28;19937;-75
2022/11/11 22:28:13;;;;;;;;;;;7.20;99.90;;;;;;8416965;28;19934;-75
2022/11/11 22:32:14;;;;;;;;;;;7.10;99.90;;;;;;8397169;28;20023;-75
2022/11/11 22:36:17;;;;;;;;;;;7.10;99.90;;;;;;8422052;28;19942;-76
2022/11/11 22:40:18;;;;;;;;;;;7.10;99.90;;;;;;8398359;28;19935;-75
2022/11/11 22:44:20;;;;;;;;;;;7.00;99.90;;;;;;8404822;28;19924;-75
2022/11/11 22:48:22;;;;;;;;;;;7.00;99.90;;;;;;8405495;28;20265;-75
2022/11/11 22:52:24;;;;;;;;;;;7.00;99.90;;;;;;8388376;28;19955;-75
2022/11/11 22:56:26;;;;;;;;;;;6.90;99.90;;;;;;8416044;28;19924;-75
2022/11/11 23:00:28;;;;;;;;;;;6.90;99.90;;;;;;8406507;28;20282;-75
2022/11/11 23:19:38;;;;;;;;;;;6.70;99.90;;;;;;8416866;28;19935;-75
2022/11/11 23:23:40;;;;;;;;;;;6.60;99.90;;;;;;8407354;28;19939;-75
2022/11/11 23:27:42;;;;;;;;;;;6.50;99.90;;;;;;8406263;28;20391;-75
2022/11/11 23:31:45;;;;;;;;;;;6.50;99.90;;;;;;8410632;28;20391;-75
2022/11/11 23:35:46;;;;;;;;;;;6.40;99.90;;;;;;8400598;28;19928;-75
2022/11/11 23:39:48;;;;;;;;;;;6.40;99.90;;;;;;8422618;28;20085;-75
2022/11/11 23:43:50;;;;;;;;;;;6.40;99.90;;;;;;8407491;28;20290;-75
2022/11/11 23:47:51;;;;;;;;;;;6.30;99.90;;;;;;8419331;28;20368;-75
2022/11/11 23:51:53;;;;;;;;;;;6.30;99.90;;;;;;8415110;28;20011;-75
2022/11/11 23:55:55;;;;;;;;;;;6.30;99.90;;;;;;8392055;28;19939;-75
2022/11/11 23:59:56;;;;;;;;;;;6.20;99.90;;;;;;8400036;28;19928;-75
